Time;durP1;ratioP1;P1;durP2;ratioP2;P2;SDS_P1;SDS_P2;PMS_P1;PMS_P2;Temp;Humidity;BMP_temperature;BMP_pressure;BME280_temperature;BME280_humidity;BME280_pressure;Samples;Min_cycle;Max_cycle;Signal;HPM_P1;HPM_P2
2021/09/14 00:00:23;;;;;;;26.70;9.90;;;;;;;20.22;44.51;99066.13;26925;1222;3026660;-64
2021/09/14 00:02:52;;;;;;;32.30;11.40;;;;;;;20.21;44.32;99060.55;27097;1219;3025874;-65
2021/09/14 00:05:21;;;;;;;27.30;9.70;;;;;;;20.23;43.94;99059.30;27000;1220;3048648;-65
2021/09/14 00:07:50;;;;;;;20.50;9.60;;;;;;;20.24;44.82;99057.53;26923;1222;3026379;-64
2021/09/14 00:10:39;;;;;;;25.60;10.60;;;;;;;20.23;44.92;99063.84;26961;1225;3058840;-64
2021/09/14 00:13:08;;;;;;;22.10;9.10;;;;;;;20.22;44.47;99058.17;26958;1220;3026541;-64
2021/09/14 00:15:37;;;;;;;23.00;9.80;;;;;;;20.23;44.36;99061.53;26963;1219;3051834;-65
2021/09/14 00:18:26;;;;;;;24.60;9.90;;;;;;;20.25;44.65;99061.58;26942;1223;3055533;-62
2021/09/14 00:20:55;;;;;;;33.10;10.20;;;;;;;20.21;45.13;99059.46;26990;1222;3025761;-65
2021/09/14 00:23:24;;;;;;;25.30;8.90;;;;;;;20.18;44.90;99063.90;26914;1219;3025898;-65
2021/09/14 00:25:54;;;;;;;28.20;10.00;;;;;;;20.17;44.98;99058.36;26953;1219;3057650;-65
2021/09/14 00:28:24;;;;;;;22.10;9.50;;;;;;;20.17;44.81;99059.61;26958;1223;3026910;-62
2021/09/14 00:30:54;;;;;;;28.60;10.00;;;;;;;20.15;44.86;99056.60;26922;1223;3026307;-67
2021/09/14 00:33:23;;;;;;;30.80;10.00;;;;;;;20.10;44.80;99055.80;26995;1220;3028485;-66
2021/09/14 00:35:52;;;;;;;25.10;9.80;;;;;;;20.09;44.65;99056.65;26963;1218;3048223;-64
2021/09/14 00:38:21;;;;;;;23.40;8.60;;;;;;;20.15;44.25;99053.05;26952;1223;3028654;-63
2021/09/14 00:40:50;;;;;;;23.10;8.40;;;;;;;20.20;43.70;99052.00;27000;1222;3056122;-63
2021/09/14 00:43:22;;;;;;;29.60;11.50;;;;;;;20.19;44.08;99053.01;26999;1222;3026349;-65
2021/09/14 00:45:53;;;;;;;33.40;12.80;;;;;;;20.20;43.23;99048.77;26957;1222;3054312;-63
2021/09/14 00:48:22;;;;;;;29.90;11.80;;;;;;;20.24;42.97;99052.20;27007;1221;3026316;-69
2021/09/14 00:50:51;;;;;;;30.50;11.30;;;;;;;20.29;43.16;99049.00;26931;1222;3026137;-65
2021/09/14 00:53:20;;;;;;;35.70;11.20;;;;;;;20.32;43.04;99048.50;26944;1222;3028570;-63
2021/09/14 00:55:49;;;;;;;26.80;10.30;;;;;;;20.34;43.23;99049.23;26946;1226;3060301;-63
2021/09/14 00:58:18;;;;;;;31.30;11.30;;;;;;;20.35;42.90;99048.77;27007;1221;3026187;-65
2021/09/14 01:00:47;;;;;;;30.40;11.00;;;;;;;20.34;43.11;99050.40;26963;1220;3052957;-66
2021/09/14 01:03:16;;;;;;;30.60;10.00;;;;;;;20.33;42.90;99053.57;26963;1222;3026034;-67
2021/09/14 01:05:45;;;;;;;31.20;9.00;;;;;;;20.36;42.49;99047.17;26930;1227;3051660;-68
2021/09/14 01:08:14;;;;;;;29.70;9.10;;;;;;;20.41;41.97;99045.44;26961;1227;3026440;-66
2021/09/14 01:10:43;;;;;;;21.40;8.80;;;;;;;20.48;41.90;99042.67;26971;1224;3047173;-68
2021/09/14 01:13:18;;;;;;;21.70;8.10;;;;;;;20.55;41.98;99046.80;26908;1225;3054841;-64
2021/09/14 01:16:11;;;;;;;23.50;8.30;;;;;;;20.60;41.44;99039.23;26938;1225;3052516;-64
2021/09/14 01:18:43;;;;;;;15.60;5.90;;;;;;;20.63;41.18;99037.67;26959;1228;3058332;-63
2021/09/14 01:21:11;;;;;;;22.30;6.50;;;;;;;20.71;40.69;99042.95;26943;1222;3027267;-65
2021/09/14 01:23:40;;;;;;;22.30;7.40;;;;;;;20.74;40.63;99045.41;26912;1227;3053947;-64
2021/09/14 01:26:10;;;;;;;29.00;10.00;;;;;;;20.71;40.95;99044.55;26942;1225;3029042;-64
2021/09/14 01:28:40;;;;;;;29.00;8.30;;;;;;;20.69;40.84;99047.19;26975;1226;3026004;-64
2021/09/14 01:31:09;;;;;;;18.20;7.00;;;;;;;20.74;40.74;99052.05;27027;1222;3025969;-69
2021/09/14 01:33:38;;;;;;;16.80;7.30;;;;;;;20.74;40.56;99052.05;26938;1222;3026227;-63
2021/09/14 01:36:18;;;;;;;28.00;8.60;;;;;;;20.74;40.57;99057.66;26953;1222;3051483;-66
2021/09/14 01:38:49;;;;;;;28.10;9.30;;;;;;;20.75;40.40;99058.36;26976;1223;3026387;-65
2021/09/14 01:41:19;;;;;;;18.90;6.30;;;;;;;20.79;40.29;99055.39;27007;1219;3029475;-63
2021/09/14 01:43:49;;;;;;;21.60;7.60;;;;;;;20.79;40.23;99055.35;26916;1223;3026777;-66
2021/09/14 01:46:18;;;;;;;23.00;9.10;;;;;;;20.78;40.33;99054.45;26898;1224;3027114;-65
2021/09/14 01:48:48;;;;;;;23.40;8.60;;;;;;;20.79;40.28;99055.05;27060;1222;3050463;-65
2021/09/14 01:51:18;;;;;;;22.50;6.80;;;;;;;20.76;40.31;99054.09;27045;1222;3027116;-65
2021/09/14 01:53:52;;;;;;;14.50;5.50;;;;;;;20.77;40.13;99055.56;27027;1222;3027035;-64
2021/09/14 01:56:22;;;;;;;17.50;5.70;;;;;;;20.80;40.12;99054.71;26951;1222;3054827;-63
2021/09/14 01:58:53;;;;;;;16.30;5.10;;;;;;;20.79;40.30;99054.67;26979;1219;3026258;-64
2021/09/14 02:01:29;;;;;;;16.30;5.60;;;;;;;20.76;40.46;99054.32;27022;1219;3026390;-65
2021/09/14 02:59:46;;;;;;;19.20;6.30;;;;;;;21.02;40.23;99063.39;27024;1227;3027352;-67
2021/09/14 03:02:15;;;;;;;19.50;7.40;;;;;;;20.97;40.26;99065.04;27047;1218;3025646;-64
2021/09/14 03:04:45;;;;;;;20.50;6.90;;;;;;;20.90;40.27;99066.41;27060;1222;3068529;-69
2021/09/14 03:07:14;;;;;;;17.50;6.80;;;;;;;20.84;40.46;99076.34;27012;1222;3026367;-64
2021/09/14 03:09:44;;;;;;;21.00;6.30;;;;;;;20.83;40.88;99073.87;26976;1222;3026462;-66
2021/09/14 03:12:33;;;;;;;17.40;6.40;;;;;;;20.74;40.92;99074.98;26983;1222;3053713;-64
2021/09/14 03:15:03;;;;;;;22.50;5.50;;;;;;;20.73;41.07;99074.52;26938;1221;3028270;-66
2021/09/14 03:17:33;;;;;;;14.20;5.40;;;;;;;20.76;40.98;99080.11;26997;1221;3025566;-62
2021/09/14 03:20:05;;;;;;;12.50;5.30;;;;;;;20.76;41.08;99079.52;27032;1222;3026402;-65
2021/09/14 03:22:34;;;;;;;13.30;5.90;;;;;;;20.73;41.16;99080.48;26957;1219;3026104;-65
2021/09/14 03:25:23;;;;;;;19.00;6.90;;;;;;;20.75;40.92;99084.25;26968;1221;3068616;-62
2021/09/14 03:27:53;;;;;;;23.80;9.30;;;;;;;20.75;40.95;99086.38;27046;1222;3026829;-66
2021/09/14 03:30:22;;;;;;;26.30;8.80;;;;;;;20.74;41.09;99085.33;27014;1219;3025825;-62
2021/09/14 03:33:02;;;;;;;20.70;8.30;;;;;;;20.73;41.14;99083.45;26944;1224;3054267;-64
2021/09/14 03:35:31;;;;;;;26.30;7.90;;;;;;;20.70;41.13;99086.05;26883;1224;3026153;-65
2021/09/14 03:38:00;;;;;;;23.50;8.50;;;;;;;20.69;41.06;99084.35;26929;1219;3026372;-65
2021/09/14 03:40:29;;;;;;;25.80;8.40;;;;;;;20.71;41.05;99086.98;27054;1220;3051596;-66
2021/09/14 03:43:00;;;;;;;30.00;9.00;;;;;;;20.74;40.88;99090.13;26909;1222;3026321;-68
2021/09/14 03:45:28;;;;;;;37.70;11.90;;;;;;;20.78;40.71;99097.63;26903;1222;3026414;-66
2021/09/14 03:47:58;;;;;;;31.10;11.40;;;;;;;20.60;43.05;99105.81;26961;1227;3052014;-65
2021/09/14 03:50:27;;;;;;;31.20;10.40;;;;;;;20.37;43.53;99103.95;27050;1222;3025774;-68
2021/09/14 03:52:56;;;;;;;24.10;9.60;;;;;;;20.20;44.15;99104.98;26922;1220;3025651;-66
2021/09/14 03:55:25;;;;;;;32.80;10.40;;;;;;;19.97;44.68;99104.89;27004;1219;3054192;-63
2021/09/14 03:57:54;;;;;;;33.60;11.30;;;;;;;19.89;45.16;99111.93;26924;1219;3026218;-64
2021/09/14 04:00:23;;;;;;;34.20;12.10;;;;;;;19.81;45.69;99115.40;26928;1219;3025933;-64
2021/09/14 04:03:25;;;;;;;34.10;12.70;;;;;;;19.69;46.34;99114.89;27058;1219;3051634;-64
2021/09/14 04:08:53;;;;;;;41.50;13.60;;;;;;;19.50;47.09;99119.81;26957;1218;3047930;-68
2021/09/14 04:11:43;;;;;;;44.80;14.10;;;;;;;19.34;48.01;99122.16;26986;1221;3053273;-66
2021/09/14 04:14:13;;;;;;;38.40;13.30;;;;;;;19.26;47.83;99122.31;27035;1227;3026676;-61
2021/09/14 04:16:43;;;;;;;38.40;14.50;;;;;;;19.22;48.13;99122.32;26970;1225;3025992;-66
2021/09/14 04:19:12;;;;;;;36.60;13.00;;;;;;;19.30;47.82;99124.23;26940;1225;3026550;-68
2021/09/14 04:21:58;;;;;;;36.10;12.50;;;;;;;19.40;47.10;99121.41;27005;1223;3054131;-64
2021/09/14 04:24:33;;;;;;;27.40;10.60;;;;;;;19.47;46.67;99126.35;27006;1221;3054087;-69
2021/09/14 04:27:04;;;;;;;33.30;11.30;;;;;;;19.56;46.39;99126.02;27065;1221;3026910;-65
2021/09/14 04:29:33;;;;;;;27.60;10.70;;;;;;;19.61;47.66;99125.99;26912;1221;3025704;-62
2021/09/14 04:32:03;;;;;;;26.30;10.50;;;;;;;19.71;45.79;99126.00;26952;1219;3026491;-68
2021/09/14 04:34:33;;;;;;;33.80;10.30;;;;;;;19.82;45.21;99127.27;26973;1222;3025750;-63
2021/09/14 04:37:03;;;;;;;34.40;10.60;;;;;;;19.86;45.51;99126.63;26962;1221;3026766;-64
2021/09/14 04:39:34;;;;;;;35.90;12.70;;;;;;;19.92;46.26;99127.38;27048;1220;3026483;-66
2021/09/14 04:42:04;;;;;;;24.10;8.30;;;;;;;20.01;45.35;99125.83;27028;1219;3026318;-64
2021/09/14 04:44:33;;;;;;;21.10;7.40;;;;;;;20.09;44.73;99126.52;26975;1225;3025894;-67
2021/09/14 04:47:03;;;;;;;25.40;8.10;;;;;;;20.18;44.32;99125.45;26998;1219;3048160;-66
2021/09/14 04:49:32;;;;;;;38.70;13.20;;;;;;;20.25;45.19;99127.52;26936;1227;3026280;-63
2021/09/14 04:52:06;;;;;;;40.60;16.60;;;;;;;20.29;47.36;99127.29;27039;1219;3026467;-67
2021/09/14 04:54:35;;;;;;;51.00;17.10;;;;;;;20.29;49.96;99131.58;27049;1220;3026351;-65
2021/09/14 04:57:07;;;;;;;41.70;11.00;;;;;;;20.31;47.75;99127.60;26916;1220;3029082;-62
2021/09/14 04:59:36;;;;;;;36.40;12.40;;;;;;;20.39;46.24;99124.81;27054;1222;3026619;-66
2021/09/14 05:02:06;;;;;;;32.30;11.90;;;;;;;20.40;47.94;99125.95;26966;1219;3026325;-66
2021/09/14 05:04:36;;;;;;;37.60;12.40;;;;;;;20.43;46.53;99125.38;26958;1222;3025908;-65
2021/09/14 05:07:07;;;;;;;39.20;13.10;;;;;;;20.42;47.50;99125.73;27044;1222;3026119;-67
2021/09/14 05:09:36;;;;;;;30.60;11.80;;;;;;;20.47;47.21;99122.88;26946;1220;3026894;-67
2021/09/14 05:12:06;;;;;;;41.20;12.40;;;;;;;20.49;46.77;99127.59;26938;1218;3025838;-68
2021/09/14 05:14:54;;;;;;;27.10;9.20;;;;;;;20.47;46.66;99125.52;26919;1225;3058789;-68
2021/09/14 05:17:32;;;;;;;27.70;10.20;;;;;;;20.48;46.42;99124.23;27001;1221;3049339;-65
2021/09/14 05:20:21;;;;;;;37.70;11.00;;;;;;;20.47;46.22;99127.09;26984;1220;3055344;-66
2021/09/14 05:23:00;;;;;;;36.20;11.80;;;;;;;20.51;46.45;99126.73;26942;1222;3026299;-66
2021/09/14 05:25:30;;;;;;;37.00;11.70;;;;;;;20.52;45.87;99124.65;26909;1220;3068047;-62
2021/09/14 05:27:58;;;;;;;32.30;9.70;;;;;;;20.60;45.68;99125.33;27067;1218;3025745;-68
2021/09/14 05:30:27;;;;;;;42.20;12.80;;;;;;;20.66;45.34;99127.80;26989;1220;3050024;-63
2021/09/14 05:32:56;;;;;;;44.10;12.10;;;;;;;20.68;45.55;99129.89;27023;1219;3026736;-65
2021/09/14 05:35:28;;;;;;;36.10;12.50;;;;;;;20.76;45.22;99132.42;26890;1219;3054993;-68
2021/09/14 05:37:58;;;;;;;33.40;12.20;;;;;;;20.79;45.32;99132.77;27032;1220;3026465;-65
2021/09/14 05:40:27;;;;;;;44.20;12.40;;;;;;;20.86;45.27;99132.70;26899;1220;3026212;-68
2021/09/14 05:42:57;;;;;;;45.40;12.10;;;;;;;20.94;45.52;99137.17;26987;1222;3053538;-63
2021/09/14 05:45:26;;;;;;;32.10;10.60;;;;;;;21.05;45.79;99135.35;26906;1227;3026561;-65
2021/09/14 05:47:55;;;;;;;49.90;13.50;;;;;;;21.14;45.77;99141.66;26900;1225;3051775;-64
2021/09/14 05:50:25;;;;;;;52.80;12.90;;;;;;;21.15;45.52;99144.91;27054;1221;3026117;-63
2021/09/14 05:52:54;;;;;;;37.50;11.50;;;;;;;21.18;45.54;99147.08;27006;1219;3025886;-65
2021/09/14 05:55:23;;;;;;;38.30;12.20;;;;;;;21.24;45.17;99141.23;26976;1219;3025842;-67
2021/09/14 05:57:53;;;;;;;40.30;11.50;;;;;;;21.42;44.68;99139.81;26957;1220;3053099;-63
2021/09/14 06:00:23;;;;;;;46.40;11.60;;;;;;;21.55;44.06;99144.79;27048;1220;3026147;-65
2021/09/14 06:02:52;;;;;;;42.50;11.90;;;;;;;21.61;43.53;99151.19;26950;1222;3027002;-65
2021/09/14 06:05:21;;;;;;;40.30;12.80;;;;;;;21.53;44.16;99158.05;26943;1220;3025874;-65
2021/09/14 06:07:50;;;;;;;40.30;12.80;;;;;;;21.57;44.18;99159.86;26946;1224;3049987;-64
2021/09/14 06:10:19;;;;;;;41.30;13.20;;;;;;;21.67;43.67;99152.49;26986;1221;3026637;-65
2021/09/14 06:13:25;;;;;;;44.60;14.10;;;;;;;21.79;44.43;99156.70;26975;1220;3047763;-68
2021/09/14 06:15:54;;;;;;;46.40;14.80;;;;;;;21.80;44.92;99156.67;27024;1221;3025624;-64
2021/09/14 06:18:25;;;;;;;58.40;17.40;;;;;;;21.84;45.37;99161.33;26975;1222;3026548;-65
2021/09/14 06:20:55;;;;;;;47.00;19.50;;;;;;;21.86;46.93;99165.05;26914;1220;3026997;-64
2021/09/14 06:23:26;;;;;;;65.70;19.50;;;;;;;21.72;47.19;99167.03;27066;1222;3027060;-67
2021/09/14 06:25:57;;;;;;;55.40;18.20;;;;;;;21.72;47.33;99164.64;27029;1222;3026193;-65
2021/09/14 06:28:27;;;;;;;48.50;17.70;;;;;;;21.80;47.00;99164.98;26970;1222;3025857;-65
2021/09/14 06:30:55;;;;;;;41.90;17.80;;;;;;;21.77;46.97;99166.23;26885;1219;3026295;-66
2021/09/14 06:33:30;;;;;;;38.90;17.90;;;;;;;21.83;46.55;99164.51;27046;1220;3025995;-64
2021/09/14 06:35:59;;;;;;;33.30;14.80;;;;;;;21.84;45.87;99167.91;26905;1218;3027249;-62
2021/09/14 06:38:31;;;;;;;38.60;15.20;;;;;;;21.87;45.80;99167.64;26964;1226;3025630;-66
2021/09/14 06:41:01;;;;;;;44.20;13.90;;;;;;;21.91;46.34;99170.92;27075;1220;3026668;-64
2021/09/14 06:43:36;;;;;;;28.50;13.00;;;;;;;21.93;45.39;99173.85;27023;1221;3049738;-66
2021/09/14 06:46:22;;;;;;;29.00;13.70;;;;;;;21.98;45.99;99176.37;26970;1220;3055205;-66
2021/09/14 06:49:05;;;;;;;38.90;14.70;;;;;;;22.10;45.70;99178.66;27002;1222;3055309;-65
2021/09/14 06:51:35;;;;;;;32.60;15.90;;;;;;;22.10;46.25;99185.56;26972;1220;3026307;-67
2021/09/14 06:54:06;;;;;;;38.40;15.60;;;;;;;22.06;46.56;99182.21;26998;1222;3026081;-66
2021/09/14 06:56:35;;;;;;;31.50;14.50;;;;;;;22.11;46.17;99185.88;27017;1220;3025972;-63
2021/09/14 06:59:09;;;;;;;34.00;14.80;;;;;;;22.16;46.63;99192.13;27064;1226;3069708;-65
2021/09/14 07:01:39;;;;;;;37.90;16.20;;;;;;;22.20;46.06;99185.34;27062;1220;3026834;-64
2021/09/14 07:04:08;;;;;;;34.10;17.50;;;;;;;22.27;45.96;99191.20;27080;1222;3027751;-65
2021/09/14 07:06:37;;;;;;;34.90;16.40;;;;;;;22.37;45.65;99191.08;26969;1220;3026682;-62
2021/09/14 07:09:07;;;;;;;40.60;16.90;;;;;;;22.43;45.72;99193.23;27016;1220;3047696;-67
2021/09/14 07:11:38;;;;;;;30.90;15.90;;;;;;;22.49;45.71;99194.36;26948;1220;3026479;-62
2021/09/14 07:14:09;;;;;;;32.90;16.10;;;;;;;22.67;45.39;99187.00;26943;1225;3026979;-64
2021/09/14 07:16:39;;;;;;;36.90;17.60;;;;;;;22.84;45.13;99186.39;27057;1220;3026062;-65
2021/09/14 07:19:08;;;;;;;33.10;17.20;;;;;;;22.96;45.07;99184.98;26977;1222;3026491;-63
2021/09/14 07:21:37;;;;;;;33.80;17.50;;;;;;;23.14;44.81;99185.73;27040;1220;3054026;-61
2021/09/14 07:24:07;;;;;;;39.80;16.00;;;;;;;23.32;43.82;99185.06;26990;1219;3026183;-64
2021/09/14 07:26:36;;;;;;;40.40;15.90;;;;;;;23.49;43.57;99185.44;27021;1220;3027485;-63
2021/09/14 07:29:06;;;;;;;37.00;15.40;;;;;;;23.60;43.14;99183.11;26963;1222;3051668;-64
2021/09/14 07:31:35;;;;;;;34.10;14.50;;;;;;;23.68;43.12;99186.33;27000;1222;3026601;-62
2021/09/14 07:34:05;;;;;;;34.10;15.50;;;;;;;23.63;43.17;99187.09;26982;1220;3029494;-62
2021/09/14 07:36:34;;;;;;;29.90;14.90;;;;;;;23.59;43.38;99183.68;26963;1220;3026250;-66
2021/09/14 07:39:04;;;;;;;26.00;15.00;;;;;;;23.71;43.40;99184.02;27054;1219;3028013;-62
2021/09/14 07:41:33;;;;;;;33.70;15.70;;;;;;;23.85;43.30;99182.91;27035;1221;3048998;-64
2021/09/14 07:44:03;;;;;;;33.40;14.10;;;;;;;23.94;43.12;99181.23;27044;1226;3026099;-66
2021/09/14 07:46:32;;;;;;;30.00;12.90;;;;;;;24.08;41.57;99176.02;27030;1220;3027244;-62
2021/09/14 07:49:02;;;;;;;30.60;13.90;;;;;;;24.22;41.05;99177.88;27053;1218;3025848;-67
2021/09/14 07:51:31;;;;;;;32.70;13.40;;;;;;;24.35;41.18;99171.41;27058;1219;3053799;-68
2021/09/14 07:54:01;;;;;;;32.90;14.00;;;;;;;24.49;40.96;99169.13;26951;1219;3026641;-65
2021/09/14 07:56:29;;;;;;;33.00;13.00;;;;;;;24.59;40.83;99168.61;27014;1219;3025915;-68
2021/09/14 07:58:59;;;;;;;33.20;14.20;;;;;;;24.67;40.58;99170.48;26957;1220;3054626;-63
2021/09/14 08:01:28;;;;;;;32.10;15.70;;;;;;;24.72;40.51;99173.35;27015;1218;3026507;-64
2021/09/14 08:03:58;;;;;;;39.90;16.10;;;;;;;24.76;40.18;99171.41;26934;1221;3049123;-64
2021/09/14 08:06:27;;;;;;;35.20;15.70;;;;;;;24.73;40.14;99171.54;27011;1220;3026272;-64
2021/09/14 08:08:56;;;;;;;28.80;14.80;;;;;;;24.70;40.26;99173.91;27066;1222;3058136;-69
2021/09/14 08:11:25;;;;;;;30.50;14.30;;;;;;;24.65;39.50;99173.89;26912;1220;3025838;-61
2021/09/14 08:13:59;;;;;;;;;;;;;;;24.67;38.92;99171.31;26951;1220;3055428;-64
2021/09/14 08:16:28;;;;;;;26.20;11.60;;;;;;;24.71;38.45;99167.71;26907;1223;3026379;-67
2021/09/14 08:18:57;;;;;;;23.80;11.40;;;;;;;24.77;37.77;99173.80;27036;1222;3048675;-64
2021/09/14 08:21:25;;;;;;;27.20;11.70;;;;;;;24.90;37.70;99165.35;26968;1219;3026909;-67
2021/09/14 08:24:00;;;;;;;36.10;12.70;;;;;;;25.06;37.82;99171.70;26969;1219;3058208;-67
2021/09/14 08:26:29;;;;;;;27.00;11.80;;;;;;;25.08;37.56;99168.83;27031;1219;3026145;-63
2021/09/14 08:28:58;;;;;;;23.20;10.40;;;;;;;25.27;36.96;99167.11;26967;1226;3054159;-63
2021/09/14 08:31:29;;;;;;;32.20;10.90;;;;;;;25.36;36.40;99164.25;26996;1219;3025810;-63
2021/09/14 08:33:58;;;;;;;21.40;9.60;;;;;;;25.43;36.41;99164.95;26909;1219;3025546;-65
2021/09/14 08:36:27;;;;;;;34.10;9.60;;;;;;;25.54;35.95;99162.09;27022;1223;3054532;-66
2021/09/14 08:38:57;;;;;;;27.40;9.90;;;;;;;25.60;35.78;99165.27;27030;1220;3029008;-64
2021/09/14 08:41:29;;;;;;;20.90;8.40;;;;;;;25.73;35.53;99165.09;26973;1219;3026412;-62
2021/09/14 08:43:59;;;;;;;29.00;8.80;;;;;;;25.84;35.12;99163.33;26989;1219;3026150;-64
2021/09/14 08:46:28;;;;;;;20.20;8.20;;;;;;;25.89;35.13;99167.23;26984;1220;3026374;-68
2021/09/14 08:48:57;;;;;;;25.80;8.90;;;;;;;25.71;34.87;99166.40;26966;1218;3026396;-65
2021/09/14 08:51:26;;;;;;;23.30;9.80;;;;;;;25.64;35.00;99162.64;26925;1220;3054667;-66
2021/09/14 08:53:55;;;;;;;23.70;9.40;;;;;;;25.65;34.74;99162.90;26942;1220;3028079;-67
2021/09/14 08:56:24;;;;;;;22.80;9.10;;;;;;;25.75;34.58;99163.90;26980;1219;3051105;-64
2021/09/14 08:58:58;;;;;;;22.80;8.80;;;;;;;25.89;34.21;99164.42;26963;1219;3026164;-66
2021/09/14 09:01:28;;;;;;;26.30;8.90;;;;;;;25.88;33.52;99163.30;26927;1220;3026823;-65
2021/09/14 09:03:57;;;;;;;20.70;8.60;;;;;;;25.74;33.36;99168.40;26991;1220;3027649;-67
2021/09/14 09:06:35;;;;;;;22.90;9.20;;;;;;;25.68;33.10;99164.27;26992;1220;3026489;-62
2021/09/14 09:09:20;;;;;;;24.40;9.30;;;;;;;25.87;33.20;99165.11;27018;1220;3051501;-64
2021/09/14 09:11:55;;;;;;;;;;;;;;;25.92;32.84;99161.33;27004;1219;3054974;-65
2021/09/14 09:14:34;;;;;;;35.60;10.90;;;;;;;26.01;33.04;99156.95;26987;1219;3056303;-62
2021/09/14 09:17:06;;;;;;;24.60;8.70;;;;;;;26.04;32.62;99157.70;26980;1219;3052535;-64
2021/09/14 09:19:35;;;;;;;23.20;8.10;;;;;;;25.85;32.26;99156.49;27033;1219;3026456;-65
2021/09/14 09:22:11;;;;;;;17.90;7.10;;;;;;;25.88;32.25;99155.42;26994;1219;3025953;-64
2021/09/14 09:24:52;;;;;;;23.50;7.10;;;;;;;25.98;32.19;99154.37;27010;1221;3070801;-63
2021/09/14 09:27:27;;;;;;;22.00;7.30;;;;;;;26.21;32.11;99156.36;27052;1220;3050990;-65
2021/09/14 09:30:00;;;;;;;17.50;6.40;;;;;;;26.30;32.11;99156.98;27019;1219;3054001;-65
2021/09/14 09:32:45;;;;;;;14.20;6.10;;;;;;;26.33;32.11;99151.80;26975;1219;3026598;-66
2021/09/14 09:35:27;;;;;;;9.20;5.30;;;;;;;26.23;31.46;99154.06;27026;1218;3056166;-66
2021/09/14 09:37:56;;;;;;;18.80;5.90;;;;;;;25.96;31.94;99151.00;27007;1220;3049431;-64
2021/09/14 09:40:31;;;;;;;16.70;6.30;;;;;;;26.02;32.29;99147.55;27062;1219;3026297;-66
2021/09/14 09:43:04;;;;;;;13.30;5.70;;;;;;;26.14;32.32;99150.27;26981;1220;3056035;-63
2021/09/14 09:45:46;;;;;;;20.30;7.40;;;;;;;26.43;32.17;99145.77;27007;1219;3049931;-65
2021/09/14 09:48:16;;;;;;;19.00;7.30;;;;;;;26.37;32.18;99150.45;27045;1219;3054842;-68
2021/09/14 09:50:44;;;;;;;13.10;7.40;;;;;;;26.50;32.30;99154.03;27003;1220;3029319;-63
2021/09/14 09:53:14;;;;;;;16.90;8.50;;;;;;;26.45;32.45;99156.60;26945;1219;3049141;-65
2021/09/14 09:55:42;;;;;;;16.00;8.50;;;;;;;26.24;32.94;99151.16;26949;1219;3027653;-66
2021/09/14 09:58:12;;;;;;;14.70;8.60;;;;;;;26.42;32.80;99151.40;26933;1227;3057688;-66
2021/09/14 10:00:41;;;;;;;13.70;6.70;;;;;;;26.57;32.19;99153.88;26879;1219;3027062;-65
2021/09/14 10:03:14;;;;;;;13.50;7.00;;;;;;;26.25;32.40;99150.38;26905;1220;3027429;-66
2021/09/14 10:05:45;;;;;;;12.90;6.90;;;;;;;26.32;32.06;99147.42;26943;1219;3058638;-64
2021/09/14 10:08:15;;;;;;;19.20;8.40;;;;;;;26.42;32.56;99148.23;26903;1220;3026866;-62
2021/09/14 10:10:55;;;;;;;14.80;8.30;;;;;;;26.71;32.67;99145.88;26938;1220;3028039;-63
2021/09/14 10:13:33;;;;;;;15.10;8.30;;;;;;;26.78;31.80;99153.15;26963;1219;3053269;-64
2021/09/14 10:16:02;;;;;;;14.90;7.60;;;;;;;26.79;31.61;99145.64;26919;1219;3070319;-64
2021/09/14 10:18:33;;;;;;;14.40;7.40;;;;;;;26.65;31.68;99150.96;26946;1219;3026484;-66
2021/09/14 10:21:03;;;;;;;17.60;6.30;;;;;;;26.56;31.84;99150.90;26985;1219;3026339;-64
2021/09/14 10:23:34;;;;;;;14.50;6.50;;;;;;;26.68;31.58;99147.15;26955;1220;3026058;-64
2021/09/14 10:26:10;;;;;;;18.70;6.50;;;;;;;26.68;30.93;99145.38;26947;1219;3026104;-65
2021/09/14 10:28:49;;;;;;;12.40;6.70;;;;;;;26.73;31.32;99149.11;26957;1220;3050943;-67
2021/09/14 10:31:19;;;;;;;17.50;7.10;;;;;;;26.82;31.25;99140.08;26923;1220;3055248;-68
2021/09/14 10:34:19;;;;;;;15.70;8.10;;;;;;;27.01;31.30;99138.55;26890;1219;3026204;-63
2021/09/14 10:37:03;;;;;;;;;;;;;;;27.09;30.55;99135.02;26909;1219;3051565;-63
2021/09/14 10:39:34;;;;;;;17.00;7.40;;;;;;;27.07;30.66;99139.58;26958;1224;3026376;-63
2021/09/14 10:42:20;;;;;;;17.70;7.20;;;;;;;27.02;30.89;99137.18;26947;1219;3027572;-64
2021/09/14 10:44:50;;;;;;;16.00;7.40;;;;;;;27.24;30.43;99134.80;26943;1220;3071115;-60
2021/09/14 10:47:21;;;;;;;17.20;8.10;;;;;;;27.32;30.55;99131.92;26972;1219;3026327;-63
2021/09/14 10:49:59;;;;;;;13.60;7.20;;;;;;;27.53;30.58;99130.48;26976;1219;3026215;-66
2021/09/14 10:52:32;;;;;;;15.40;8.40;;;;;;;27.64;30.63;99130.86;26960;1219;3052673;-63
2021/09/14 10:55:15;;;;;;;15.80;7.60;;;;;;;27.63;30.80;99124.60;27004;1220;3055990;-64
2021/09/14 10:57:49;;;;;;;14.50;7.30;;;;;;;27.81;30.44;99128.19;26922;1220;3049583;-60
2021/09/14 11:00:19;;;;;;;13.60;7.90;;;;;;;27.84;29.79;99125.30;26978;1219;3054627;-67
2021/09/14 11:02:55;;;;;;;10.70;6.80;;;;;;;27.89;29.43;99126.95;26941;1219;3026235;-67
2021/09/14 11:05:29;;;;;;;12.60;7.10;;;;;;;27.94;29.30;99132.70;26930;1227;3070090;-62
2021/09/14 11:08:06;;;;;;;13.00;7.90;;;;;;;27.93;28.65;99126.64;26941;1219;3051310;-64
2021/09/14 11:11:00;;;;;;;11.60;7.50;;;;;;;27.95;28.67;99121.72;26927;1227;3053464;-63
2021/09/14 11:13:30;;;;;;;13.20;7.60;;;;;;;28.14;29.07;99123.83;26935;1219;3052112;-64
2021/09/14 11:16:04;;;;;;;13.30;7.40;;;;;;;28.31;28.96;99120.03;26906;1219;3026285;-66
2021/09/14 11:18:33;;;;;;;11.60;7.20;;;;;;;28.47;28.75;99120.04;26926;1219;3027399;-66
2021/09/14 11:21:08;;;;;;;16.30;8.40;;;;;;;28.30;28.66;99123.23;26943;1220;3026560;-64
2021/09/14 11:23:40;;;;;;;13.00;7.40;;;;;;;28.08;28.36;99123.94;26937;1220;3053409;-66
2021/09/14 11:26:11;;;;;;;10.00;6.90;;;;;;;28.08;28.71;99117.89;26927;1221;3026786;-63
2021/09/14 11:28:41;;;;;;;15.80;8.20;;;;;;;28.28;29.11;99118.05;26941;1219;3025625;-62
2021/09/14 11:31:13;;;;;;;9.60;6.30;;;;;;;28.49;29.34;99112.48;26954;1219;3027068;-64
2021/09/14 11:33:42;;;;;;;16.50;7.30;;;;;;;28.53;29.42;99117.38;26929;1221;3028313;-60
2021/09/14 11:36:11;;;;;;;14.60;7.30;;;;;;;28.49;29.67;99113.39;26885;1220;3026269;-61
2021/09/14 11:38:45;;;;;;;9.70;7.20;;;;;;;28.54;29.76;99111.89;26893;1220;3054562;-62
2021/09/14 11:41:14;;;;;;;15.10;7.20;;;;;;;28.72;29.68;99113.86;26913;1224;3027852;-66
2021/09/14 11:43:43;;;;;;;12.40;7.60;;;;;;;28.78;29.55;99110.61;26916;1220;3028615;-62
2021/09/14 11:46:18;;;;;;;13.90;8.00;;;;;;;28.85;29.53;99109.89;26915;1220;3051258;-63
2021/09/14 11:48:54;;;;;;;13.60;7.80;;;;;;;28.86;29.84;99107.34;26922;1219;3052314;-63
2021/09/14 11:51:23;;;;;;;16.90;8.00;;;;;;;29.09;29.64;99107.63;26946;1220;3058787;-63
2021/09/14 11:53:53;;;;;;;11.50;7.90;;;;;;;29.20;29.61;99105.69;26930;1220;3028721;-64
2021/09/14 11:56:27;;;;;;;11.70;7.90;;;;;;;29.17;29.83;99100.23;26936;1221;3054792;-67
2021/09/14 11:58:59;;;;;;;15.40;8.10;;;;;;;29.42;29.83;99102.95;26935;1220;3026155;-65
2021/09/14 12:01:31;;;;;;;13.70;7.30;;;;;;;29.48;29.16;99104.77;26960;1219;3025888;-62
2021/09/14 12:04:00;;;;;;;10.30;7.00;;;;;;;29.54;29.39;99099.34;26930;1220;3050751;-68
2021/09/14 12:06:32;;;;;;;13.80;7.90;;;;;;;29.51;29.86;99102.23;26898;1220;3028214;-67
2021/09/14 12:09:08;;;;;;;10.80;7.50;;;;;;;29.34;30.36;99100.83;26947;1219;3051459;-66
2021/09/14 12:11:41;;;;;;;12.80;7.70;;;;;;;29.08;30.78;99097.58;26901;1220;3051738;-65
2021/09/14 12:14:11;;;;;;;13.80;7.90;;;;;;;28.89;31.52;99100.66;26955;1220;3026282;-62
2021/09/14 12:17:04;;;;;;;13.60;7.60;;;;;;;28.60;32.83;99101.67;26927;1220;3048745;-65
2021/09/14 12:19:39;;;;;;;17.10;7.30;;;;;;;27.80;36.17;99105.52;26899;1221;3055621;-63
2021/09/14 12:22:28;;;;;;;20.80;7.60;;;;;;;26.94;39.48;99108.45;26912;1220;3050965;-64
2021/09/14 12:24:57;;;;;;;16.50;8.80;;;;;;;26.78;40.24;99114.30;26901;1219;3026050;-62
2021/09/14 12:27:29;;;;;;;24.00;8.50;;;;;;;26.68;40.58;99115.80;26933;1224;3053974;-63